Fort Scott, KS (66701)

9:41 AM CDT on August 04, 2015 (GMT -0500)
NonFedAWOS | | Change Station
CLOSE
Current Station
Personal Weather Station
Location: Fort Scott, KS
Elevation: 917 ft
Nearby Weather Stations

Elev 917 ft 37.80 °N, 94.77 °W | Updated 23 minutes ago

Clear
Clear
79 °F
Feels Like 81 °F
N
3
Wind Variable Wind from SE
Gusts 0.0 mph

Today
High -- | Low -- °F
--% Chance of Precip.
Yesterday
High -- | Low -- °F
Precip. -- in
6:24 AM 8:24 PM
Waning Gibbous, 77% visible
Pressure 29.99 in
Visibility 10.0 miles
Clouds Scattered Clouds 8000 ft
Heat Index 81 °F
Dew Point 68 °F
Humidity 70%
Rainfall in
Snow Depth Not available.
UV 3 out of 12
Pollen 6.50 out of 12
Air Quality Not available.
Flu Activity Not available.
METAR KPTS 041435Z AUTO 18004KT 10SM SCT080 26/22 A2999 RMK AO2 T02550219

More Conditions Fewer Conditions

Pressure 29.99 in
Visibility 10.0 miles
Clouds Scattered Clouds 8000 ft
Heat Index 81 °F
Dew Point 68 °F
Humidity 70%
Rainfall in
Snow Depth Not available.
UV 3 out of 12
Pollen 6.50 out of 12
Air Quality Not available.
Flu Activity Not available.
METAR KPTS 041435Z AUTO 18004KT 10SM SCT080 26/22 A2999 RMK AO2 T02550219

More Conditions Fewer Conditions

10-Day Weather Forecast

×

Almanac

Astronomy

Aug. 04, 2015 Rise Set
Actual Time
Civil Twilight
Nautical Twilight
Astronomical Twilight
Moon
Length of Visible Light
Length of Day
Tomorrow will be .
, % of the Moon is Illuminated

Today's Extremes

State Highs State Lows

Community

WunderPhotos

Upload Photos

1,843,921 photos uploaded!

WunderBlogs® & News

Nearby

Air Quality

  Air Quality AQ Index Pollutant
Not available.

Snow Depth

Station Depth Elevation

Earthquake Activity

City Distance Mag. Time & Date
Minimum magnitude displayed is 2.5.

Coastal Water Temperatures

Place Temperature

Stations

Nearby Weather Stations

Station Location Temp. Windchill Dew Point Humidity Wind Precip. Elev Updated Type